WEATHER DATA

YESTERDAY
Time Temp. Dewp. Hum. Wind dir Wind speed Wind gust Bar. 1h Prec. 24h Prec.
00:02 9 4.4 73 270 0.3 1.4 1016.9 0.0000 0.0000
00:22 8.8 4.2 73 315 0.3 1.1 1016.9 0.0000 0.0000
00:33 8.7 4.3 74 315 0.3 1.1 1017 0.0000 0.0000
00:42 8.5 4.1 74 315 0.3 0.8 1017 0.0000 0.0000
00:52 8.5 4.3 75 325 0.3 1.1 1017 0.0000 0.0000
01:02 8.3 4.1 75 335 0.3 0.8 1017 0.0000 0.0000
01:13 8.1 4.1 76 0 0.8 1017 0.0000 0.0000
01:22 7.8 3.8 76 0 0.3 1017.1 0.0000 0.0000
01:32 7.6 3.8 77 0 0.8 1017.1 0.0000 0.0000
01:43 7.3 3.7 78 335 0.3 0.8 1017.1 0.0000 0.0000
01:53 7.2 3.6 78 0 0.8 1017.1 0.0000 0.0000
02:02 7 3.6 79 329 0.3 0.8 1017 0.0000 0.0000
02:12 6.8 3.4 79 335 0.3 0.8 1017.1 0.0000 0.0000
02:23 6.7 3.5 80 0 0.8 1017.1 0.0000 0.0000
02:33 6.6 3.6 81 354 0.3 0.8 1017.1 0.0000 0.0000
02:43 6.6 3.6 81 0 0.8 1017 0.0000 0.0000
02:53 6.5 3.5 81 0 0.3 1.1 1016.9 0.0000 0.0000
03:03 6.5 3.5 81 350 0.3 0.8 1016.8 0.0000 0.0000
03:13 6.5 3.7 82 355 0.3 1.1 1016.8 0.0000 0.0000
03:23 6.5 3.7 82 345 0.3 1.1 1016.8 0.0000 0.0000
03:33 6.4 3.4 81 3 0.3 1.1 1016.7 0.0000 0.0000
03:43 6.3 3.5 82 18 0.3 0.8 1016.5 0.0000 0.0000
03:53 6.2 3.4 82 45 0.3 1.1 1016.6 0.0000 0.0000
04:04 6.3 3.6 83 18 0.3 1.1 1016.5 0.0000 0.0000
04:13 6.3 3.5 82 21 0.3 1.1 1016.5 0.0000 0.0000
04:23 6.3 3.5 82 351 0.3 1.1 1016.6 0.0000 0.0000
04:33 6.3 3.3 81 348 0.3 0.8 1016.5 0.0000 0.0000
04:44 6.3 3.3 81 350 0.3 1.1 1016.6 0.0000 0.0000
04:53 6.3 3.3 81 354 0.3 0.8 1016.5 0.0000 0.0000
05:03 6.3 3.1 80 21 0.3 1.1 1016.5 0.0000 0.0000
05:14 6.3 3.1 80 11 0.3 1.1 1016.3 0.0000 0.0000
05:24 6.4 3.2 80 320 0.3 1.4 1016.4 0.0000 0.0000
05:34 6.4 3 79 337 0.3 2.2 1016.4 0.0000 0.0000
05:44 6.4 3 79 345 0.3 1.4 1016.3 0.0000 0.0000
05:54 6.4 3 79 320 0.3 1.4 1016.3 0.0000 0.0000
06:04 6.4 2.8 78 0 0.3 1.1 1016.2 0.0000 0.0000
06:14 6.4 2.8 78 349 0.8 1.7 1016.3 0.0000 0.0000
06:24 6.4 2.8 78 7 0.3 1.7 1016.2 0.0000 0.0000
06:44 6.4 2.7 77 5 0.3 1.7 1016.1 0.0000 0.0000
06:54 6.3 2.6 77 15 0.3 1.4 1016.2 0.0000 0.0000
07:04 6.3 2.6 77 356 0.3 1.4 1016.1 0.0000 0.0000
07:14 6.3 2.6 77 4 0.3 1.1 1016.1 0.0000 0.0000
07:24 6.2 2.5 77 14 0.3 0.8 1016 0.0000 0.0000
07:35 6.2 2.5 77 315 0.3 1.4 1016.2 0.0000 0.0000
07:44 6.1 2.4 77 21 0.3 0.8 1016.1 0.0000 0.0000
07:54 6 2.5 78 330 0.3 0.8 1016.1 0.0000 0.0000
08:05 5.9 2.4 78 0 0.3 1.7 1016.1 0.0000 0.0000
08:15 6 2.5 78 315 0.3 1.4 1016.2 0.0000 0.0000
08:25 6 2.5 78 352 0.3 1.1 1016.1 0.0000 0.0000
08:34 6.1 2.6 78 8 0.3 1.7 1016 0.0000 0.0000
08:45 6.2 2.7 78 0 0.3 1.1 1015.9 0.0000 0.0000
08:55 6.5 2.9 78 350 0.3 1.1 1015.9 0.0000 0.0000
09:05 6.9 3 76 16 0.3 1.7 1015.9 0.0000 0.0000
09:15 7.4 3.5 76 315 0.3 1.7 1016 0.0000 0.0000
09:25 8 4 76 306 0.3 1.4 1016.1 0.0000 0.0000
09:35 8.4 4 74 270 0.3 1.4 1016 0.0000 0.0000
09:45 8.7 4.1 73 315 0.3 1.7 1016.1 0.0000 0.0000
09:55 9.1 4.3 72 307 0.3 1.4 1016 0.0000 0.0000
10:01 9.3 4.5 72 335 0.3 2.2 1016 0.0000 0.0000
10:10 9.5 4.7 72 270 0.3 1.4 1016 0.0000 0.0000
10:20 9.5 4.7 72 304 0.3 1.4 1015.9 0.0000 0.0000
10:31 9.6 5 73 304 0.3 1.7 1015.8 0.0000 0.0000
10:41 9.7 5.1 73 301 0.8 1.7 1015.8 0.0000 0.0000
10:50 9.7 5.3 74 285 0.8 1.7 1015.8 0.0000 0.0000
11:01 9.7 5.5 75 296 0.8 1.7 1015.8 0.0000 0.0000
11:11 9.7 5.7 76 288 0.8 2.5 1015.7 0.0000 0.0000
11:21 9.7 5.9 77 286 0.8 2.2 1015.7 0.0000 0.0000
11:31 9.8 6.2 78 292 1.1 3.9 1015.7 0.0000 0.0000
11:41 10 6.5 79 290 1.1 3.1 1015.6 0.0000 0.0000
11:51 10.3 7.2 81 338 0.8 3.1 1015.5 0.0000 0.0000
12:01 10.5 7.2 80 296 1.1 3.1 1015.5 0.0000 0.0000
12:06 10.5 7.2 80 289 0.8 1.7 1015.4 0.0000 0.0000
12:17 10.6 7.3 80 295 1.1 2.5 1015.2 0.0000 0.0000
12:28 10.7 7.6 81 284 0.8 2.2 1015.2 0.0000 0.0000
12:37 10.9 7.8 81 288 0.8 1.7 1015.1 0.0000 0.0000
12:47 11.2 8.1 81 319 0.8 2.2 1015 0.0000 0.0000
12:58 11.3 7.8 79 295 0.8 3.1 1014.9 0.0000 0.0000
13:13 11.7 8.2 79 325 0.8 2.5 1014.9 0.0000 0.0000
13:26 11.7 8.4 80 290 1.1 2.5 1014.6 0.0000 0.0000
13:36 12 8.7 80 336 0.8 1.7 1014.5 0.0000
16:16 12.1 9.1 82 270 0.3 0.8 1013.3 0.0000 0.0000
16:26 12.1 9.3 83 257 0.8 1.7 1013.3 0.0000 0.0000
16:35 12 9.2 83 270 0.8 1.7 1013.3 0.0000 0.0000
16:45 11.9 9.1 83 270 0.3 1.1 1013.2 0.0000 0.0000
16:56 11.8 9 83 278 1.1 2.2 1013.1 0.0000 0.0000
17:06 11.8 9 83 270 0.8 2.2 1013.1 0.0000 0.0000
17:15 11.7 9.1 84 270 0.8 1.4 1013.1 0.0000 0.0000
17:25 11.6 8.8 83 251 0.8 1.7 1013.2 0.0000 0.0000
17:36 11.4 8.8 84 252 0.8 2.2 1013.2 0.0000 0.0000
17:46 11.2 8.6 84 270 0.3 1.7 1013.2 0.0000 0.0000
17:55 11 8.6 85 270 0.8 2.2 1013.3 0.0000 0.0000
18:06 10.9 8.5 85 270 0.8 2.8 1013.4 0.0000 0.0000
18:13 10.8 8.6 86 270 1.1 2.8 1013.5 0.0000 0.0000
18:24 10.7 8.6 87 255 0.8 2.2 1013.5 0.0000 0.0000
18:29 10.6 8.5 87 270 0.8 1.7 1013.4 0.0000 0.0000
18:37 10.6 8.7 88 270 0.8 1.7 1013.6 0.0000 0.0000
18:47 10.5 8.6 88 270 0.8 2.2 1013.6 0.0000 0.0000
18:57 10.4 8.5 88 270 0.8 3.1 1013.5 0.0000 0.0000
19:07 10.4 8.5 88 270 0.8 2.8 1013.6 0.0000 0.0000
19:17 10.3 8.6 89 270 1.1 2.8 1013.5 0.0000 0.0000
19:28 10.3 8.6 89 270 0.8 1.7 1013.5 0.0000 0.0000
19:38 10.3 8.6 89 259 0.8 1.7 1013.5 0.0000 0.0000
19:47 10.3 8.6 89 270 0.8 1.7 1013.4 0.0000 0.0000
19:58 10.2 8.5 89 270 0.8 2.2 1013.4 0.0000 0.0000
20:08 10.2 8.5 89 270 0.8 1.7 1013.3 0.0000 0.0000
20:18 10.2 8.5 89 281 0.8 2.2 1013.3 0.0000 0.0000
20:28 10.2 8.5 89 270 0.3 1.4 1013.2 0.0000 0.0000
20:38 10.1 8.4 89 292 0.8 2.2 1013.3 0.0000 0.0000
20:48 10.1 8.4 89 281 1.1 2.5 1013.2 0.0000 0.0000
20:58 10 8.3 89 324 0.3 1.4 1012.8 0.0000 0.0000
21:08 9.9 8.2 89 306 0.3 1.1 1012.8 0.0000 0.0000
21:18 9.8 8.1 89 285 0.8 1.7 1013 0.0000 0.0000
21:28 9.7 8 89 270 0.3 1.4 1013 0.0000 0.0000
21:38 9.6 7.9 89 289 0.8 1.7 1012.9 0.0000 0.0000
21:49 9.6 8 90 291 0.8 1.7 1012.9 0.0000 0.0000
21:59 9.5 7.9 90 270 0.8 1.7 1012.9 0.0000 0.0000
22:09 9.5 7.9 90 293 0.8 2.2 1012.8 0.0000 0.0000
22:19 9.5 7.9 90 270 0.3 1.4 1012.9 0.0000 0.0000
22:30 9.5 7.9 90 270 1.1 3.6 1013.1 0.0000 0.0000
22:40 9.4 7.8 90 270 1.1 2.8 1013.1 0.0000 0.0000
22:50 9.4 7.8 90 270 1.4 3.6 1013.2 0.0000 0.0000
23:00 9.3 7.9 91 270 1.4 3.6 1013.4 0.2983 0.3000
23:10 9.1 7.7 91 260 1.4 2.8 1013.4 0.6960 0.7000
23:20 8.9 7.7 92 270 0.8 2.2 1013.5 0.7955 0.8000
23:30 8.6 7.4 92 281 1.1 3.1 1013.5 0.7955 0.8000
23:40 8.5 7.4 93 270 0.8 2.2 1013.7 0.7955 0.8000
23:50 8.5 7.4 93 270 0.8 2.5 1013.6 0.8949 0.9000

DAY STATISTIC

2019-02-18
TEMPERATURE
AVERAGE
8.7
HIGH
12.1
16:16
LOW
5.9
08:05
PRESSURE
AVERAGE
1015.1
HIGH
1017.1
01:22
LOW
1012.8
20:58
DEWPOINT
AVERAGE
5.8
HIGH
9.3
16:26
LOW
2.4
07:44
HUMIDITY
AVERAGE
82
HIGH
93
23:40
LOW
72
09:55
WIND SPEED
AVERAGE
0.6
HIGH
1.4
22:50
WIND GUST
AVERAGE
1.7
HIGH
3.9
11:31
WIND DIRECTION
PREVAILING
W
44.1%
N
25.2
NE
0.8
E
0.0
SE
0.0
S
0.0
SW
0.0
W
44.1
NW
25.2
PRECIPITATION
RAIN HOUR
0.9
RAIN DAY
0.9
TEMPERATURE (°C)
LOW
5.9
HIGH
12.1
AVERAGE
8.7
PRESSURE (hpa)
LOW
1012.8
HIGH
1017.1
AVERAGE
1015.1
DEVICE